Orlando, FL

5:05 PM EST on January 24, 2017 (GMT -0500)
Conway | | Change Station

Elev 100 ft 28.51 °N, 81.33 °W | Updated 15 seconds ago

Clear
Clear
70.3 °F
Feels Like 77 °F
N
4.6
Wind Variable Wind from South
Gusts 4.6 mph

Today
High -- | Low -- °F
--% Chance of Precip.
Yesterday
High -- | Low -- °F
Precip. -- in
Pressure 29.88 in
Visibility 10.0 miles
Clouds Clear
Heat Index 77 °F
Dew Point 44 °F
Humidity 38%
Rainfall 0.00 in
Snow Depth Not available.
7:16 AM 5:58 PM
Waning Crescent, 9% visible
METAR KORL 242153Z AUTO 28012KT 10SM CLR 22/03 A2987 RMK AO2 SLP117 T02220033
Pressure 29.88 in
Visibility 10.0 miles
Clouds Clear
Heat Index 77 °F
Dew Point 44 °F
Humidity 38%
Rainfall 0.00 in
Snow Depth Not available.
7:16 AM 5:58 PM
Waning Crescent, 9% visible
METAR KORL 242153Z AUTO 28012KT 10SM CLR 22/03 A2987 RMK AO2 SLP117 T02220033

Get Your Daily Forecast Email!

Thanks for signing up!

Be on the lookout for a verification email in your inbox.

You'll start receiving the daily forecast at 8 AM.

×

10-Day Weather Forecast

Almanac

Astronomy

Jan. 24, 2017 Rise Set
Actual Time
Civil Twilight
Nautical Twilight
Astronomical Twilight
Moon
Length of Visible Light
Length of Day
Tomorrow will be .
, % of the Moon is Illuminated

Today's Extremes

State Highs State Lows

Community

WunderPhotos

Upload Photos

1,962,540 photos uploaded!

WunderBlog® & News

Nearby

Air Quality

  Air Quality AQ Index Pollutant
Not available.

Snow Depth

Station Depth Elevation

Earthquake Activity

City Distance Mag. Time & Date
Minimum magnitude displayed is 2.5.

Coastal Water Temperatures

Place Temperature

Stations

Nearby Weather Stations

Station Location Temp. Windchill Dew Point Humidity Wind Precip. Elev Updated Type
                   

Watches & Warnings

There are currently no watches in effect.